createdAt,value
2016-06-09T00:00:15.780Z,1001.99
2016-06-09T00:01:15.813Z,1002
2016-06-09T00:02:15.849Z,1001.98
2016-06-09T00:03:15.899Z,1001.97
2016-06-09T00:04:15.933Z,1001.98
2016-06-09T00:05:16.014Z,1001.96
2016-06-09T00:06:16.017Z,1001.98
2016-06-09T00:07:16.051Z,1001.95
2016-06-09T00:08:16.101Z,1001.97
2016-06-09T00:09:16.152Z,1001.98
2016-06-09T00:10:16.123Z,1002
2016-06-09T00:11:16.220Z,1001.96
2016-06-09T00:12:16.254Z,1001.95
2016-06-09T00:13:16.319Z,1001.98
2016-06-09T00:14:16.307Z,1001.94
2016-06-09T00:15:16.341Z,1001.95
2016-06-09T00:16:16.375Z,1001.93
2016-06-09T00:17:16.425Z,1001.94
2016-06-09T00:18:16.460Z,1001.94
2016-06-09T00:19:16.509Z,1001.89
2016-06-09T00:20:16.560Z,1001.94
2016-06-09T00:21:16.594Z,1001.93
2016-06-09T00:22:16.628Z,1001.94
2016-06-09T00:23:16.710Z,1001.95
2016-06-09T00:24:16.729Z,1001.97
2016-06-09T00:25:16.762Z,1001.96
2016-06-09T00:26:16.797Z,1001.96
2016-06-09T00:27:16.848Z,1001.98
2016-06-09T00:28:16.882Z,1001.92
2016-06-09T00:29:16.932Z,1001.93
2016-06-09T00:30:16.981Z,1001.96
2016-06-09T00:31:17.016Z,1001.98
2016-06-09T00:32:17.053Z,1001.94
2016-06-09T00:33:17.369Z,1001.95
2016-06-09T00:34:17.153Z,1001.95
2016-06-09T00:35:17.188Z,1001.92
2016-06-09T00:36:17.237Z,1001.96
2016-06-09T00:37:17.271Z,1001.97
2016-06-09T00:38:17.322Z,1001.93
2016-06-09T00:39:17.371Z,1001.94
2016-06-09T00:40:17.405Z,1001.9
2016-06-09T00:41:17.440Z,1001.88
2016-06-09T00:42:17.475Z,1001.87
2016-06-09T00:43:17.524Z,1001.89
2016-06-09T00:44:17.574Z,1001.87
2016-06-09T00:45:17.608Z,1001.87
2016-06-09T00:46:17.659Z,1001.87
2016-06-09T00:47:17.693Z,1001.91
2016-06-09T00:48:17.743Z,1001.88
2016-06-09T00:49:18.605Z,1001.88
2016-06-09T00:50:17.827Z,1001.91
2016-06-09T00:51:17.862Z,1001.91
2016-06-09T00:52:17.911Z,1001.91
2016-06-09T00:53:17.962Z,1001.93
2016-06-09T00:54:17.996Z,1001.92
2016-06-09T00:55:18.029Z,1001.93
2016-06-09T00:56:18.079Z,1001.95
2016-06-09T00:57:18.114Z,1001.94
2016-06-09T00:58:18.164Z,1001.93
2016-06-09T00:59:18.199Z,1001.91
2016-06-09T01:00:18.248Z,1001.91
2016-06-09T01:01:18.314Z,1001.93
2016-06-09T01:02:18.333Z,1001.92
2016-06-09T01:03:18.367Z,1001.96
2016-06-09T01:04:18.417Z,1001.92
2016-06-09T01:05:18.452Z,1001.97
2016-06-09T01:06:18.501Z,1001.96
2016-06-09T01:07:18.535Z,1001.99
2016-06-09T01:08:18.585Z,1001.96
2016-06-09T01:09:18.620Z,1001.97
2016-06-09T01:10:18.670Z,1001.99
2016-06-09T01:11:18.704Z,1001.96
2016-06-09T01:12:18.754Z,1001.97
2016-06-09T01:13:18.788Z,1001.94
2016-06-09T01:14:18.838Z,1001.95
2016-06-09T01:15:18.873Z,1001.95
2016-06-09T01:16:18.922Z,1001.94
2016-06-09T01:17:18.957Z,1001.96
2016-06-09T01:18:19.008Z,1001.96
2016-06-09T01:19:19.041Z,1002.01
2016-06-09T01:20:19.091Z,1001.94
2016-06-09T01:21:19.142Z,1001.98
2016-06-09T01:22:19.176Z,1001.99
2016-06-09T01:23:19.209Z,1001.93
2016-06-09T01:24:19.260Z,1001.95
2016-06-09T01:25:19.294Z,1001.95
2016-06-09T01:26:19.344Z,1001.99
2016-06-09T01:27:19.377Z,1001.95
2016-06-09T01:28:19.428Z,1002.02
2016-06-09T01:29:19.463Z,1001.97
2016-06-09T01:30:19.512Z,1001.97
2016-06-09T01:31:19.547Z,1001.97
2016-06-09T01:32:19.596Z,1001.97
2016-06-09T01:33:20.600Z,1001.99
2016-06-09T01:34:19.681Z,1001.97
2016-06-09T01:35:19.715Z,1002.02
2016-06-09T01:36:19.766Z,1002.01
2016-06-09T01:37:19.799Z,1002.02
2016-06-09T01:38:19.850Z,1002.04
2016-06-09T01:39:19.915Z,1002.05
2016-06-09T01:40:19.934Z,1002
2016-06-09T01:41:19.968Z,1002.03
2016-06-09T01:42:20.018Z,1002.05
2016-06-09T01:43:20.052Z,1001.99
2016-06-09T01:44:20.102Z,1001.99
2016-06-09T01:45:20.137Z,1001.96
2016-06-09T01:46:20.218Z,1001.93
2016-06-09T01:47:20.222Z,1001.93
2016-06-09T01:48:20.271Z,1001.92
2016-06-09T01:49:20.853Z,1001.92
2016-06-09T01:50:20.356Z,1001.93
2016-06-09T01:51:20.390Z,1001.93
2016-06-09T01:52:20.440Z,1001.92
2016-06-09T01:53:20.474Z,1001.9
2016-06-09T01:54:20.523Z,1001.93
2016-06-09T01:55:20.558Z,1001.89
2016-06-09T01:56:20.592Z,1001.86
2016-06-09T01:57:20.642Z,1001.88
2016-06-09T01:58:20.692Z,1001.84
2016-06-09T01:59:20.727Z,1001.83
2016-06-09T02:00:20.761Z,1001.85
2016-06-09T02:01:20.810Z,1001.78
2016-06-09T02:02:20.846Z,1001.82
2016-06-09T02:03:20.896Z,1001.8
2016-06-09T02:04:20.977Z,1001.79
2016-06-09T02:05:20.980Z,1001.82
2016-06-09T02:06:21.014Z,1001.82
2016-06-09T02:07:21.173Z,1001.85
2016-06-09T02:08:21.098Z,1001.82
2016-06-09T02:09:21.148Z,1001.78
2016-06-09T02:10:21.182Z,1001.79
2016-06-09T02:11:21.232Z,1001.75
2016-06-09T02:12:21.266Z,1001.76
2016-06-09T02:13:21.317Z,1001.77
2016-06-09T02:14:21.350Z,1001.75
2016-06-09T02:15:21.417Z,1001.8
2016-06-09T02:16:21.436Z,1001.8
2016-06-09T02:17:21.485Z,1001.78
2016-06-09T02:18:22.284Z,1001.79
2016-06-09T02:19:21.663Z,1001.81
2016-06-09T02:20:21.604Z,1001.81
2016-06-09T02:21:21.653Z,1001.81
2016-06-09T02:22:21.719Z,1001.83
2016-06-09T02:23:21.722Z,1001.83
2016-06-09T02:24:21.772Z,1001.8
2016-06-09T02:25:21.822Z,1001.79
2016-06-09T02:26:21.856Z,1001.82
2016-06-09T02:27:21.890Z,1001.85
2016-06-09T02:28:21.941Z,1001.84
2016-06-09T02:29:21.991Z,1001.84
2016-06-09T02:30:22.025Z,1001.81
2016-06-09T02:31:22.060Z,1001.84
2016-06-09T02:32:22.110Z,1001.82
2016-06-09T02:33:22.144Z,1001.8
2016-06-09T02:34:22.194Z,1001.85
2016-06-09T02:35:22.228Z,1001.82
2016-06-09T02:36:22.309Z,1001.84
2016-06-09T02:37:22.312Z,1001.8
2016-06-09T02:38:22.347Z,1001.82
2016-06-09T02:39:22.396Z,1001.79
2016-06-09T02:40:22.446Z,1001.77
2016-06-09T02:41:22.481Z,1001.77
2016-06-09T02:42:22.516Z,1001.78
2016-06-09T02:43:22.564Z,1001.75
2016-06-09T02:44:22.615Z,1001.76
2016-06-09T02:45:22.649Z,1001.75
2016-06-09T02:46:22.684Z,1001.75
2016-06-09T02:47:22.749Z,1001.79
2016-06-09T02:48:22.767Z,1001.76
2016-06-09T02:49:22.818Z,1001.77
2016-06-09T02:50:22.852Z,1001.74
2016-06-09T02:51:22.902Z,1001.76
2016-06-09T02:52:22.936Z,1001.79
2016-06-09T02:53:22.970Z,1001.8
2016-06-09T02:54:23.036Z,1001.78
2016-06-09T02:55:23.071Z,1001.81
2016-06-09T02:56:23.104Z,1001.8
2016-06-09T02:57:23.139Z,1001.82
2016-06-09T02:58:23.190Z,1001.83
2016-06-09T02:59:23.239Z,1001.83
2016-06-09T03:00:23.273Z,1001.84
2016-06-09T03:01:23.324Z,1001.83
2016-06-09T03:02:23.358Z,1001.83
2016-06-09T03:03:23.392Z,1001.81
2016-06-09T03:04:23.442Z,1001.8
2016-06-09T03:05:23.477Z,1001.79
2016-06-09T03:06:23.526Z,1001.82
2016-06-09T03:07:23.560Z,1001.78
2016-06-09T03:08:23.627Z,1001.75
2016-06-09T03:09:23.645Z,1001.72
2016-06-09T03:10:23.679Z,1001.74
2016-06-09T03:11:23.730Z,1001.72
2016-06-09T03:12:23.764Z,1001.77
2016-06-09T03:13:23.814Z,1001.73
2016-06-09T03:14:23.847Z,1001.73
2016-06-09T03:15:23.898Z,1001.72
2016-06-09T03:16:23.932Z,1001.75
2016-06-09T03:17:23.982Z,1001.73
2016-06-09T03:18:24.032Z,1001.73
2016-06-09T03:19:24.082Z,1001.76
2016-06-09T03:20:24.100Z,1001.75
2016-06-09T03:21:24.150Z,1001.74
2016-06-09T03:22:24.184Z,1001.74
2016-06-09T03:23:24.219Z,1001.8
2016-06-09T03:24:24.269Z,1001.77
2016-06-09T03:25:24.304Z,1001.8
2016-06-09T03:26:24.354Z,1001.81
2016-06-09T03:27:24.387Z,1001.85
2016-06-09T03:28:24.438Z,1001.86
2016-06-09T03:29:24.488Z,1001.91
2016-06-09T03:30:24.522Z,1001.85
2016-06-09T03:31:24.556Z,1001.94
2016-06-09T03:32:24.607Z,1001.88
2016-06-09T03:33:24.656Z,1001.92
2016-06-09T03:34:24.706Z,1001.9
2016-06-09T03:35:24.725Z,1001.92
2016-06-09T03:36:24.760Z,1001.9
2016-06-09T03:37:24.809Z,1001.93
2016-06-09T03:38:24.844Z,1001.9
2016-06-09T03:39:24.894Z,1001.92
2016-06-09T03:40:24.944Z,1001.94
2016-06-09T03:41:24.977Z,1001.92
2016-06-09T03:42:25.012Z,1001.95
2016-06-09T03:43:25.062Z,1001.97
2016-06-09T03:44:25.096Z,1001.97
2016-06-09T03:45:25.146Z,1001.96
2016-06-09T03:46:25.180Z,1002
2016-06-09T03:47:25.215Z,1001.97
2016-06-09T03:48:25.264Z,1001.97
2016-06-09T03:49:25.315Z,1001.99
2016-06-09T03:50:25.349Z,1002.01
2016-06-09T03:51:25.430Z,1001.99
2016-06-09T03:52:25.434Z,1002.03
2016-06-09T03:53:25.468Z,1002.01
2016-06-09T03:54:25.517Z,1002.03
2016-06-09T03:55:25.552Z,1002
2016-06-09T03:56:25.602Z,1001.99
2016-06-09T03:57:25.636Z,1002.05
2016-06-09T03:58:25.686Z,1002.02
2016-06-09T03:59:25.720Z,1002.03
2016-06-09T04:00:25.770Z,1002.03
2016-06-09T04:01:25.804Z,1002.04
2016-06-09T04:02:25.855Z,1002.05
2016-06-09T04:03:25.890Z,1002.03
2016-06-09T04:04:26.220Z,1002.1
2016-06-09T04:05:25.974Z,1002.1
2016-06-09T04:06:26.008Z,1002.07
2016-06-09T04:07:26.058Z,1002.04
2016-06-09T04:08:26.107Z,1002.07
2016-06-09T04:09:26.142Z,1002.09
2016-06-09T04:10:26.176Z,1002.09
2016-06-09T04:11:26.226Z,1002.08
2016-06-09T04:12:26.260Z,1002.09
2016-06-09T04:13:26.326Z,1002.12
2016-06-09T04:14:26.344Z,1002.12
2016-06-09T04:15:26.395Z,1002.08
2016-06-09T04:16:26.430Z,1002.12
2016-06-09T04:17:26.478Z,1002.09
2016-06-09T04:18:26.513Z,1002.08
2016-06-09T04:19:26.548Z,1002.07
2016-06-09T04:20:26.598Z,1002.1
2016-06-09T04:21:26.631Z,1002.1
2016-06-09T04:22:26.682Z,1002.15
2016-06-09T04:23:26.716Z,1002.1
2016-06-09T04:24:26.797Z,1002.11
2016-06-09T04:25:26.800Z,1002.09
2016-06-09T04:26:26.850Z,1002.1
2016-06-09T04:27:26.884Z,1002.12
2016-06-09T04:28:26.934Z,1002.13
2016-06-09T04:29:26.970Z,1002.12
2016-06-09T04:30:27.019Z,1002.14
2016-06-09T04:31:27.054Z,1002.12
2016-06-09T04:32:27.103Z,1002.16
2016-06-09T04:33:27.138Z,1002.13
2016-06-09T04:34:27.531Z,1002.12
2016-06-09T04:35:27.268Z,1002.11
2016-06-09T04:36:27.272Z,1002.13
2016-06-09T04:37:27.306Z,1002.12
2016-06-09T04:38:27.356Z,1002.12
2016-06-09T04:39:27.390Z,1002.12
2016-06-09T04:40:27.440Z,1002.12
2016-06-09T04:41:27.474Z,1002.12
2016-06-09T04:42:27.524Z,1002.1
2016-06-09T04:43:27.575Z,1002.11
2016-06-09T04:44:27.608Z,1002.14
2016-06-09T04:45:27.643Z,1002.13
2016-06-09T04:46:27.709Z,1002.14
2016-06-09T04:47:27.728Z,1002.17
2016-06-09T04:48:27.777Z,1002.15
2016-06-09T04:49:27.827Z,1002.15
2016-06-09T04:50:27.862Z,1002.15
2016-06-09T04:51:27.896Z,1002.15
2016-06-09T04:52:27.993Z,1002.18
2016-06-09T04:53:27.996Z,1002.17
2016-06-09T04:54:28.030Z,1002.13
2016-06-09T04:55:28.064Z,1002.11
2016-06-09T04:56:28.427Z,1002.11
2016-06-09T04:57:28.149Z,1002.14
2016-06-09T04:58:28.199Z,1002.1
2016-06-09T04:59:28.232Z,1002.03
2016-06-09T05:00:28.283Z,1002.08
2016-06-09T05:01:28.318Z,1002.04
2016-06-09T05:02:28.367Z,1002.1
2016-06-09T05:03:28.652Z,1002.05
2016-06-09T05:04:29.060Z,1002.06
2016-06-09T05:05:28.548Z,1002.03
2016-06-09T05:06:28.536Z,1002.01
2016-06-09T05:07:28.632Z,1002.02
2016-06-09T05:08:28.636Z,1002.04
2016-06-09T05:09:28.654Z,1002.05
2016-06-09T05:10:29.001Z,1002.04
2016-06-09T05:11:28.739Z,1002
2016-06-09T05:12:28.789Z,1002.01
2016-06-09T05:13:28.822Z,1001.98
2016-06-09T05:14:28.920Z,1001.99
2016-06-09T05:15:28.907Z,1001.99
2016-06-09T05:16:28.957Z,1001.99
2016-06-09T05:17:28.992Z,1001.95
2016-06-09T05:18:29.041Z,1001.98
2016-06-09T05:19:29.091Z,1001.98
2016-06-09T05:20:29.407Z,1001.98
2016-06-09T05:21:29.175Z,1001.94
2016-06-09T05:22:29.210Z,1001.92
2016-06-09T05:23:29.260Z,1001.92
2016-06-09T05:24:29.325Z,1001.94
2016-06-09T05:25:29.345Z,1001.95
2016-06-09T05:26:29.613Z,1001.95
2016-06-09T05:27:29.429Z,1001.98
2016-06-09T05:28:29.728Z,1001.98
2016-06-09T05:29:29.575Z,1001.93
2016-06-09T05:30:29.547Z,1001.96
2016-06-09T05:31:29.988Z,1001.98
2016-06-09T05:32:29.631Z,1001.97
2016-06-09T05:33:29.697Z,1001.99
2016-06-09T05:34:29.887Z,1001.96
2016-06-09T05:35:29.766Z,1001.95
2016-06-09T05:36:29.800Z,1001.94
2016-06-09T05:37:29.974Z,1001.95
2016-06-09T05:38:30.181Z,1001.93
2016-06-09T05:39:30.310Z,1001.97
2016-06-09T05:40:29.984Z,1001.95
2016-06-09T05:41:30.331Z,1001.92
2016-06-09T05:42:30.131Z,1001.95
2016-06-09T05:43:30.102Z,1001.95
2016-06-09T05:44:30.137Z,1001.98
2016-06-09T05:45:30.186Z,1001.98
2016-06-09T05:46:30.221Z,1001.96
2016-06-09T05:47:30.271Z,1002
2016-06-09T05:48:30.321Z,1002
2016-06-09T05:49:30.355Z,1002
2016-06-09T05:50:30.389Z,1002.03
2016-06-09T05:51:30.486Z,1002.03
2016-06-09T05:52:30.599Z,1001.99
2016-06-09T05:53:30.523Z,1002.05
2016-06-09T05:54:30.981Z,1002.02
2016-06-09T05:55:30.609Z,1002.03
2016-06-09T05:56:30.657Z,1002.03
2016-06-09T05:57:30.693Z,1002.02
2016-06-09T05:58:30.852Z,1002.02
2016-06-09T05:59:30.777Z,1002.05
2016-06-09T06:00:30.827Z,1002.04
2016-06-09T06:01:30.862Z,1002.04
2016-06-09T06:02:31.036Z,1002.06
2016-06-09T06:03:30.962Z,1002.1
2016-06-09T06:04:30.995Z,1002.13
2016-06-09T06:05:31.279Z,1002.15
2016-06-09T06:06:31.876Z,1002.17
2016-06-09T06:07:31.129Z,1002.19
2016-06-09T06:08:31.163Z,1002.14
2016-06-09T06:09:31.448Z,1002.12
2016-06-09T06:10:31.436Z,1002.16
2016-06-09T06:11:31.298Z,1002.13
2016-06-09T06:12:31.332Z,1002.19
2016-06-09T06:13:31.617Z,1002.13
2016-06-09T06:14:31.432Z,1002.17
2016-06-09T06:15:31.466Z,1002.21
2016-06-09T06:16:32.298Z,1002.17
2016-06-09T06:17:32.519Z,1002.2
2016-06-09T06:18:31.601Z,1002.2
2016-06-09T06:19:32.714Z,1002.23
2016-06-09T06:20:31.686Z,1002.18
2016-06-09T06:21:31.751Z,1002.2
2016-06-09T06:22:31.801Z,1002.2
2016-06-09T06:23:32.960Z,1002.2
2016-06-09T06:24:32.026Z,1002.2
2016-06-09T06:25:31.935Z,1002.22
2016-06-09T06:26:31.938Z,1002.17
2016-06-09T06:27:31.988Z,1002.18
2016-06-09T06:28:33.147Z,1002.21
2016-06-09T06:29:32.073Z,1002.19
2016-06-09T06:30:32.106Z,1002.2
2016-06-09T06:31:32.172Z,1002.17
2016-06-09T06:32:32.222Z,1002.17
2016-06-09T06:33:33.413Z,1002.19
2016-06-09T06:34:32.290Z,1002.16
2016-06-09T06:35:32.544Z,1002.15
2016-06-09T06:36:32.485Z,1002.16
2016-06-09T06:37:32.550Z,1002.15
2016-06-09T06:38:45.475Z,1002.16
2016-06-09T06:39:32.665Z,1002.17
2016-06-09T06:40:32.653Z,1002.17
2016-06-09T06:41:32.671Z,1002.19
2016-06-09T06:42:36.096Z,1002.14
2016-06-09T06:43:32.850Z,1002.17
2016-06-09T06:45:12.305Z,1002.13
2016-06-09T06:46:12.512Z,1002.18
2016-06-09T06:47:18.671Z,1002.15
2016-06-09T06:48:13.956Z,1002.16
2016-06-09T06:49:12.881Z,1002.22
2016-06-09T06:50:12.525Z,1002.23
2016-06-09T06:51:12.981Z,1002.22
2016-06-09T06:52:33.518Z,1002.22
2016-06-09T06:53:34.271Z,1002.23
2016-06-09T06:54:33.524Z,1002.26
2016-06-09T06:55:33.824Z,1002.26
2016-06-09T06:56:33.624Z,1002.23
2016-06-09T06:57:33.595Z,1002.24
2016-06-09T06:58:35.053Z,1002.24
2016-06-09T06:59:33.821Z,1002.22
2016-06-09T07:00:33.761Z,1002.25
2016-06-09T07:01:33.764Z,1002.26
2016-06-09T07:02:33.815Z,1002.26
2016-06-09T07:03:34.005Z,1002.24
2016-06-09T07:04:33.929Z,1002.2
2016-06-09T07:05:33.980Z,1002.18
2016-06-09T07:06:33.983Z,1002.2
2016-06-09T07:07:34.033Z,1002.2
2016-06-09T07:08:34.067Z,1002.18
2016-06-09T07:09:34.117Z,1002.2
2016-06-09T07:10:34.183Z,1002.18
2016-06-09T07:11:34.201Z,1002.2
2016-06-09T07:12:34.251Z,1002.18
2016-06-09T07:13:34.473Z,1002.18
2016-06-09T07:14:34.336Z,1002.15
2016-06-09T07:15:34.541Z,1002.18
2016-06-09T07:16:34.420Z,1002.13
2016-06-09T07:17:34.906Z,1002.14
2016-06-09T07:18:34.629Z,1002.16
2016-06-09T07:19:34.695Z,1002.15
2016-06-09T07:20:34.807Z,1002.09
2016-06-09T07:21:34.638Z,1002.14
2016-06-09T07:22:34.672Z,1002.12
2016-06-09T07:23:34.722Z,1002.14
2016-06-09T07:24:34.835Z,1002.15
2016-06-09T07:25:34.823Z,1002.13
2016-06-09T07:26:34.904Z,1002.1
2016-06-09T07:27:35.001Z,1002.12
2016-06-09T07:28:35.081Z,1002.11
2016-06-09T07:29:35.085Z,1002.08
2016-06-09T07:30:35.026Z,1002.13
2016-06-09T07:31:35.075Z,1002.1
2016-06-09T07:32:35.125Z,1002.12
2016-06-09T07:33:35.190Z,1002.12
2016-06-09T07:34:35.209Z,1002.09
2016-06-09T07:35:35.259Z,1002.15
2016-06-09T07:36:36.247Z,1002.13
2016-06-09T07:37:37.562Z,1002.2
2016-06-09T07:38:36.503Z,1002.19
2016-06-09T07:39:35.974Z,1002.21
2016-06-09T07:40:35.462Z,1002.17
2016-06-09T07:41:35.512Z,1002.15
2016-06-09T07:42:37.438Z,1002.15
2016-06-09T07:43:37.627Z,1002.2
2016-06-09T07:44:36.459Z,1002.2
2016-06-09T07:45:36.243Z,1002.21
2016-06-09T07:46:36.965Z,1002.21
2016-06-09T07:47:37.015Z,1002.21
2016-06-09T07:48:35.831Z,1002.19
2016-06-09T07:49:35.849Z,1002.16
2016-06-09T07:50:36.149Z,1002.22
2016-06-09T07:51:35.950Z,1002.22
2016-06-09T07:52:36.077Z,1002.21
2016-06-09T07:53:36.033Z,1002.21
2016-06-09T07:54:36.083Z,1002.24
2016-06-09T07:55:36.134Z,1002.26
2016-06-09T07:56:36.152Z,1002.28
2016-06-09T07:57:36.234Z,1002.25
2016-06-09T07:58:36.298Z,1002.28
2016-06-09T07:59:36.396Z,1002.29
2016-06-09T08:00:36.336Z,1002.32
2016-06-09T08:01:36.386Z,1002.3
2016-06-09T08:02:36.545Z,1002.31
2016-06-09T08:03:39.658Z,1002.32
2016-06-09T08:04:37.176Z,1002.28
2016-06-09T08:05:37.071Z,1002.29
2016-06-09T08:06:37.245Z,1002.26
2016-06-09T08:07:37.233Z,1002.26
2016-06-09T08:08:38.768Z,1002.27
2016-06-09T08:09:37.395Z,1002.29
2016-06-09T08:10:38.055Z,1002.32
2016-06-09T08:11:37.558Z,1002.26
2016-06-09T08:12:37.560Z,1002.27
2016-06-09T08:13:36.923Z,1002.29
2016-06-09T08:14:36.972Z,1002.28
2016-06-09T08:15:36.976Z,1002.29
2016-06-09T08:16:37.073Z,1002.27
2016-06-09T08:17:37.060Z,1002.28
2016-06-09T08:18:37.110Z,1002.27
2016-06-09T08:19:37.161Z,1002.31
2016-06-09T08:20:37.225Z,1002.29
2016-06-09T08:21:37.229Z,1002.31
2016-06-09T08:22:37.278Z,1002.28
2016-06-09T08:23:37.329Z,1002.29
2016-06-09T08:24:37.397Z,1002.27
2016-06-09T08:25:37.457Z,1002.33
2016-06-09T08:26:37.535Z,1002.31
2016-06-09T08:27:37.626Z,1002.34
2016-06-09T08:28:37.705Z,1002.31
2016-06-09T08:29:37.842Z,1002.37
2016-06-09T08:30:37.860Z,1002.37
2016-06-09T08:31:37.911Z,1002.35
2016-06-09T08:32:37.976Z,1002.31
2016-06-09T08:33:38.025Z,1002.31
2016-06-09T08:34:38.137Z,1002.27
2016-06-09T08:35:38.271Z,1002.33
2016-06-09T08:36:38.186Z,1002.31
2016-06-09T08:37:38.241Z,1002.31
2016-06-09T08:38:38.280Z,1002.31
2016-06-09T08:39:38.335Z,1002.34
2016-06-09T08:40:38.559Z,1002.33
2016-06-09T08:41:38.440Z,1002.33
2016-06-09T08:42:38.741Z,1002.34
2016-06-09T08:43:38.512Z,1002.38
2016-06-09T08:44:38.563Z,1002.4
2016-06-09T08:45:38.614Z,1002.38
2016-06-09T08:46:38.727Z,1002.38
2016-06-09T08:47:38.700Z,1002.35
2016-06-09T08:48:38.735Z,1002.35
2016-06-09T08:49:38.786Z,1002.38
2016-06-09T08:50:38.836Z,1002.4
2016-06-09T08:51:38.886Z,1002.39
2016-06-09T08:52:38.921Z,1002.39
2016-06-09T08:53:38.972Z,1002.34
2016-06-09T08:54:39.006Z,1002.41
2016-06-09T08:55:39.057Z,1002.37
2016-06-09T08:56:39.122Z,1002.36
2016-06-09T08:57:39.282Z,1002.32
2016-06-09T08:58:39.597Z,1002.32
2016-06-09T08:59:39.240Z,1002.38
2016-06-09T09:00:39.399Z,1002.37
2016-06-09T09:01:39.324Z,1002.35
2016-06-09T09:02:39.374Z,1002.37
2016-06-09T09:03:39.424Z,1002.41
2016-06-09T09:04:39.459Z,1002.36
2016-06-09T09:05:39.712Z,1002.35
2016-06-09T09:06:39.824Z,1002.32
2016-06-09T09:07:39.765Z,1002.32
2016-06-09T09:08:39.627Z,1002.29
2016-06-09T09:09:39.677Z,1002.3
2016-06-09T09:10:39.728Z,1002.3
2016-06-09T09:11:39.777Z,1002.3
2016-06-09T09:12:39.812Z,1002.32
2016-06-09T09:13:39.862Z,1002.32
2016-06-09T09:14:39.912Z,1002.33
2016-06-09T09:15:39.945Z,1002.33
2016-06-09T09:16:40.840Z,1002.32
2016-06-09T09:17:40.155Z,1002.27
2016-06-09T09:18:40.080Z,1002.29
2016-06-09T09:19:40.114Z,1002.31
2016-06-09T09:20:40.211Z,1002.33
2016-06-09T09:21:40.324Z,1002.34
2016-06-09T09:22:40.280Z,1002.32
2016-06-09T09:23:40.501Z,1002.31
2016-06-09T09:24:40.411Z,1002.27
2016-06-09T09:25:40.382Z,1002.3
2016-06-09T09:26:40.432Z,1002.25
2016-06-09T09:27:40.483Z,1002.3
2016-06-09T09:28:40.954Z,1002.3
2016-06-09T09:29:40.566Z,1002.29
2016-06-09T09:30:40.742Z,1002.32
2016-06-09T09:31:40.713Z,1002.29
2016-06-09T09:32:40.716Z,1002.3
2016-06-09T09:33:40.767Z,1002.27
2016-06-09T09:34:40.801Z,1002.28
2016-06-09T09:35:41.007Z,1002.31
2016-06-09T09:36:40.885Z,1002.29
2016-06-09T09:37:40.936Z,1002.3
2016-06-09T09:38:40.985Z,1002.33
2016-06-09T09:39:41.019Z,1002.33
2016-06-09T09:40:41.350Z,1002.28
2016-06-09T09:41:41.120Z,1002.28
2016-06-09T09:42:41.184Z,1002.28
2016-06-09T09:43:41.438Z,1002.25
2016-06-09T09:44:41.316Z,1002.25
2016-06-09T09:45:41.319Z,1002.23
2016-06-09T09:46:44.791Z,1002.27
2016-06-09T09:47:41.387Z,1002.24
2016-06-09T09:48:41.438Z,1002.26
2016-06-09T09:49:41.519Z,1002.28
2016-06-09T09:50:41.789Z,1002.29
2016-06-09T09:51:41.573Z,1002.25
2016-06-09T09:52:41.606Z,1002.26
2016-06-09T09:53:41.656Z,1002.25
2016-06-09T09:54:41.754Z,1002.26
2016-06-09T09:55:41.882Z,1002.27
2016-06-09T09:56:41.790Z,1002.3
2016-06-09T09:57:41.856Z,1002.27
2016-06-09T09:58:41.905Z,1002.25
2016-06-09T09:59:41.925Z,1002.24
2016-06-09T10:00:41.975Z,1002.21
2016-06-09T10:01:42.056Z,1002.27
2016-06-09T10:02:42.121Z,1002.28
2016-06-09T10:03:42.124Z,1002.24
2016-06-09T10:04:42.159Z,1002.31
2016-06-09T10:05:42.193Z,1002.35
2016-06-09T10:06:42.415Z,1002.31
2016-06-09T10:07:42.293Z,1002.35
2016-06-09T10:08:42.328Z,1002.37
2016-06-09T10:09:42.377Z,1002.34
2016-06-09T10:10:42.428Z,1002.31
2016-06-09T10:11:42.462Z,1002.33
2016-06-09T10:12:42.512Z,1002.29
2016-06-09T10:13:42.937Z,1002.29
2016-06-09T10:14:42.612Z,1002.31
2016-06-09T10:15:42.646Z,1002.29
2016-06-09T10:16:42.696Z,1002.26
2016-06-09T10:17:42.746Z,1002.29
2016-06-09T10:18:42.811Z,1002.32
2016-06-09T10:19:42.955Z,1002.31
2016-06-09T10:20:43.287Z,1002.32
2016-06-09T10:21:43.054Z,1002.28
2016-06-09T10:22:43.027Z,1002.26
2016-06-09T10:23:43.015Z,1002.27
2016-06-09T10:24:43.063Z,1002.24
2016-06-09T10:25:43.098Z,1002.27
2016-06-09T10:26:43.149Z,1002.32
2016-06-09T10:27:43.605Z,1002.35
2016-06-09T10:28:43.358Z,1002.32
2016-06-09T10:29:43.298Z,1002.3
2016-06-09T10:30:43.396Z,1002.34
2016-06-09T10:31:43.398Z,1002.36
2016-06-09T10:32:43.432Z,1002.33
2016-06-09T10:33:43.670Z,1002.4
2016-06-09T10:34:43.516Z,1002.3
2016-06-09T10:35:44.458Z,1002.3
2016-06-09T10:36:43.647Z,1002.3
2016-06-09T10:37:43.650Z,1002.26
2016-06-09T10:38:43.700Z,1002.29
2016-06-09T10:39:43.751Z,1002.27
2016-06-09T10:40:43.801Z,1002.32
2016-06-09T10:41:43.866Z,1002.29
2016-06-09T10:42:43.885Z,1002.36
2016-06-09T10:43:44.482Z,1002.33
2016-06-09T10:44:43.985Z,1002.26
2016-06-09T10:45:44.020Z,1002.3
2016-06-09T10:46:44.069Z,1002.27
2016-06-09T10:47:44.119Z,1002.27
2016-06-09T10:48:44.154Z,1002.26
2016-06-09T10:49:44.203Z,1002.27
2016-06-09T10:50:44.254Z,1002.3
2016-06-09T10:51:44.335Z,1002.28
2016-06-09T10:52:44.338Z,1002.26
2016-06-09T10:53:44.388Z,1002.23
2016-06-09T10:54:44.437Z,1002.26
2016-06-09T10:55:44.472Z,1002.27
2016-06-09T10:56:44.522Z,1002.28
2016-06-09T10:57:44.619Z,1002.22
2016-06-09T10:58:44.622Z,1002.21
2016-06-09T10:59:44.657Z,1002.21
2016-06-09T11:00:44.706Z,1002.2
2016-06-09T11:02:01.069Z,1002.25
2016-06-09T11:02:44.821Z,1002.26
2016-06-09T11:03:44.841Z,1002.34
2016-06-09T11:04:44.875Z,1002.31
2016-06-09T11:05:45.018Z,1002.29
2016-06-09T11:06:45.787Z,1002.33
2016-06-09T11:07:45.025Z,1002.26
2016-06-09T11:08:45.074Z,1002.24
2016-06-09T11:09:45.187Z,1002.26
2016-06-09T11:10:45.174Z,1002.26
2016-06-09T11:11:45.208Z,1002.25
2016-06-09T11:12:45.680Z,1002.29
2016-06-09T11:13:45.605Z,1002.38
2016-06-09T11:14:45.405Z,1002.4
2016-06-09T11:15:45.533Z,1002.31
2016-06-09T11:16:45.427Z,1002.36
2016-06-09T11:17:45.476Z,1002.35
2016-06-09T11:18:45.527Z,1002.26
2016-06-09T11:19:45.561Z,1002.3
2016-06-09T11:20:45.627Z,1002.38
2016-06-09T11:21:45.677Z,1002.48
2016-06-09T11:22:45.711Z,1002.47
2016-06-09T11:23:45.761Z,1002.45
2016-06-09T11:24:45.811Z,1002.53
2016-06-09T11:25:45.845Z,1002.49
2016-06-09T11:26:45.895Z,1002.27
2016-06-09T11:27:45.946Z,1002.18
2016-06-09T11:28:46.026Z,1002.16
2016-06-09T11:29:46.061Z,1002.22
2016-06-09T11:30:46.110Z,1002.16
2016-06-09T11:31:46.144Z,1002.21
2016-06-09T11:32:46.195Z,1002.51
2016-06-09T11:33:46.245Z,1002.29
2016-06-09T11:34:46.294Z,1002.22
2016-06-09T11:35:46.345Z,1002.12
2016-06-09T11:36:46.395Z,1002.15
2016-06-09T11:37:46.445Z,1002.28
2016-06-09T11:38:46.495Z,1002.29
2016-06-09T11:39:46.529Z,1002.41
2016-06-09T11:40:46.595Z,1002.35
2016-06-09T11:41:46.629Z,1002.4
2016-06-09T11:42:46.695Z,1002.28
2016-06-09T11:43:46.792Z,1002.45
2016-06-09T11:44:46.779Z,1002.43
2016-06-09T11:45:46.829Z,1002.35
2016-06-09T11:46:46.879Z,1002.24
2016-06-09T11:47:46.929Z,1002.16
2016-06-09T11:48:46.993Z,1002.2
2016-06-09T11:49:47.029Z,1002.24
2016-06-09T11:50:47.078Z,1002.19
2016-06-09T11:51:47.503Z,1002.33
2016-06-09T11:52:47.194Z,1002.18
2016-06-09T11:53:47.245Z,1002.04
2016-06-09T11:54:47.294Z,1002.05
2016-06-09T11:55:47.360Z,1002.13
2016-06-09T11:56:47.393Z,1002.07
2016-06-09T11:57:47.444Z,1002.05
2016-06-09T11:58:47.478Z,1002.03
2016-06-09T11:59:47.527Z,1002.01
2016-06-09T12:00:47.578Z,1002.05
2016-06-09T12:01:47.691Z,1002.24
2016-06-09T12:02:47.678Z,1001.95
2016-06-09T12:03:47.728Z,1001.95
2016-06-09T12:04:47.856Z,1001.97
2016-06-09T12:05:47.843Z,1002.3
2016-06-09T12:06:47.893Z,1002.41
2016-06-09T12:07:47.974Z,1002.41
2016-06-09T12:08:48.149Z,1002.35
2016-06-09T12:09:48.293Z,1002.05